createdAt,value
2024-03-01T00:00:24.630Z,7.7
2024-03-01T00:05:30.056Z,7.7
2024-03-01T00:10:19.025Z,7.8
2024-03-01T00:15:25.020Z,7.7
2024-03-01T00:20:31.149Z,7.7
2024-03-01T00:25:20.035Z,8.2
2024-03-01T00:30:26.358Z,8.6
2024-03-01T00:35:32.405Z,8.8
2024-03-01T00:40:21.557Z,9.0
2024-03-01T00:45:27.557Z,8.7
2024-03-01T00:50:33.625Z,8.5
2024-03-01T00:55:21.820Z,8.4
2024-03-01T01:00:28.011Z,8.3
2024-03-01T01:05:34.334Z,8.5
2024-03-01T01:10:22.745Z,8.7
2024-03-01T01:15:28.750Z,8.5
2024-03-01T01:20:17.872Z,8.4
2024-03-01T01:25:23.987Z,8.5
2024-03-01T01:30:30.151Z,8.5
2024-03-01T01:35:19.002Z,9.0
2024-03-01T01:40:25.371Z,9.3
2024-03-01T01:45:31.317Z,9.6
2024-03-01T01:50:20.208Z,9.8
2024-03-01T01:55:26.205Z,10.5
2024-03-01T02:00:32.227Z,10.9
2024-03-01T02:05:21.441Z,10.9
2024-03-01T02:10:28.557Z,10.9
2024-03-01T02:15:37.017Z,10.4
2024-03-01T02:20:22.534Z,10.0
2024-03-01T02:25:28.768Z,10.2
2024-03-01T02:30:35.675Z,10.3
2024-03-01T02:35:23.547Z,10.9
2024-03-01T02:40:30.142Z,11.5
2024-03-01T02:45:18.816Z,10.2
2024-03-01T02:50:25.056Z,9.2
2024-03-01T02:55:30.674Z,9.4
2024-03-01T03:00:19.502Z,9.5
2024-03-01T03:05:24.829Z,9.6
2024-03-01T03:10:31.337Z,9.7
2024-03-01T03:15:20.137Z,10.0
2024-03-01T03:20:26.140Z,10.2
2024-03-01T03:25:32.320Z,10.3
2024-03-01T03:30:21.164Z,10.3
2024-03-01T03:35:27.104Z,10.6
2024-03-01T03:40:33.664Z,10.8
2024-03-01T03:45:22.197Z,12.7
2024-03-01T03:50:28.144Z,14.5
2024-03-01T03:55:34.799Z,16.1
2024-03-01T04:00:22.739Z,17.7
2024-03-01T04:05:29.112Z,16.7
2024-03-01T04:10:18.332Z,15.7
2024-03-01T04:15:24.368Z,15.8
2024-03-01T04:20:30.772Z,15.9
2024-03-01T04:25:19.505Z,13.5
2024-03-01T04:30:25.780Z,11.2
2024-03-01T04:35:31.496Z,11.7
2024-03-01T04:40:21.266Z,12.4
2024-03-01T04:45:26.970Z,13.8
2024-03-01T04:50:32.775Z,15.6
2024-03-01T04:55:21.180Z,15.2
2024-03-01T05:00:27.307Z,14.8
2024-03-01T05:05:33.457Z,14.7
2024-03-01T05:10:22.174Z,14.6
2024-03-01T05:15:28.224Z,13.9
2024-03-01T05:20:35.938Z,12.8
2024-03-01T05:25:23.426Z,14.2
2024-03-01T05:30:38.578Z,16.3
2024-03-01T05:35:18.295Z,16.7
2024-03-01T05:40:24.566Z,17.3
2024-03-01T05:45:30.767Z,17.1
2024-03-01T05:50:19.347Z,16.8
2024-03-01T05:55:25.795Z,16.8
2024-03-01T06:00:31.534Z,16.8
2024-03-01T06:05:19.883Z,16.9
2024-03-01T06:10:26.192Z,17.1
2024-03-01T06:15:32.006Z,21.0
2024-03-01T06:20:21.315Z,26.8
2024-03-01T06:25:27.075Z,24.7
2024-03-01T06:30:33.430Z,20.9
2024-03-01T06:35:22.109Z,19.1
2024-03-01T06:40:28.214Z,15.4
2024-03-01T06:45:34.773Z,14.9
2024-03-01T06:50:23.398Z,14.0
2024-03-01T06:55:29.604Z,14.4
2024-03-01T07:00:18.376Z,15.3
2024-03-01T07:05:23.708Z,15.7
2024-03-01T07:10:29.965Z,16.7
2024-03-01T07:15:19.032Z,17.4
2024-03-01T07:20:24.946Z,19.2
2024-03-01T07:25:31.282Z,18.7
2024-03-01T07:30:20.030Z,17.7
2024-03-01T07:35:26.173Z,17.9
2024-03-01T07:40:32.446Z,18.3
2024-03-01T07:45:21.098Z,18.3
2024-03-01T07:50:27.309Z,18.3
2024-03-01T07:55:34.812Z,16.9
2024-03-01T08:00:21.740Z,13.6
2024-03-01T08:05:28.382Z,13.6
2024-03-01T08:10:35.078Z,13.4
2024-03-01T08:15:23.241Z,13.8
2024-03-01T08:20:29.346Z,14.5
2024-03-01T08:25:18.180Z,15.3
2024-03-01T08:30:24.338Z,17.0
2024-03-01T08:35:30.590Z,15.4
2024-03-01T08:40:19.332Z,11.5
2024-03-01T08:45:25.528Z,11.2
2024-03-01T08:50:31.867Z,10.7
2024-03-01T08:55:20.165Z,10.8
2024-03-01T09:00:26.179Z,11.1
2024-03-01T09:05:32.885Z,11.1
2024-03-01T09:10:21.783Z,11.1
2024-03-01T09:15:27.440Z,11.3
2024-03-01T09:20:33.804Z,11.8
2024-03-01T09:25:22.570Z,11.8
2024-03-01T09:30:28.623Z,12.0
2024-03-01T09:35:35.542Z,11.7
2024-03-01T09:40:23.544Z,11.0
2024-03-01T09:45:29.882Z,35.9
2024-03-01T09:50:18.825Z,102.0
2024-03-01T09:55:24.473Z,82.0
2024-03-01T10:00:30.789Z,11.8
2024-03-01T10:05:20.083Z,11.5
2024-03-01T10:10:25.893Z,10.8
2024-03-01T10:15:31.057Z,10.8
2024-03-01T10:20:19.780Z,10.8
2024-03-01T10:25:26.312Z,11.0
2024-03-01T10:30:32.193Z,11.5
2024-03-01T10:35:20.931Z,11.9
2024-03-01T10:40:30.330Z,13.3
2024-03-01T10:45:33.504Z,13.1
2024-03-01T10:50:22.382Z,12.3
2024-03-01T10:55:27.950Z,12.3
2024-03-01T11:00:34.079Z,12.1
2024-03-01T11:05:23.114Z,12.8
2024-03-01T11:10:29.253Z,15.6
2024-03-01T11:15:18.270Z,15.2
2024-03-01T11:20:33.729Z,13.6
2024-03-01T11:25:30.585Z,13.7
2024-03-01T11:30:19.362Z,14.1
2024-03-01T11:35:25.622Z,14.8
2024-03-01T11:40:31.842Z,18.0
2024-03-01T11:45:20.574Z,17.5
2024-03-01T11:50:30.086Z,15.5
2024-03-01T11:55:32.501Z,15.5
2024-03-01T12:00:21.008Z,15.8
2024-03-01T12:05:27.507Z,15.4
2024-03-01T12:10:34.365Z,13.6
2024-03-01T12:15:23.308Z,13.6
2024-03-01T12:20:28.530Z,13.5
2024-03-01T12:25:35.549Z,19.6
2024-03-01T12:30:23.748Z,44.0
2024-03-01T12:35:29.938Z,38.0
2024-03-01T12:40:19.053Z,14.0
2024-03-01T12:45:24.667Z,14.3
2024-03-01T12:50:30.884Z,16.6
2024-03-01T12:55:19.199Z,16.5
2024-03-01T13:00:25.531Z,16.4
2024-03-01T13:05:31.818Z,16.4
2024-03-01T13:10:20.559Z,16.4
2024-03-01T13:15:26.775Z,16.3
2024-03-01T13:20:32.871Z,15.4
2024-03-01T13:25:22.102Z,15.4
2024-03-01T13:30:27.822Z,14.8
2024-03-01T13:35:35.718Z,14.8
2024-03-01T13:40:23.238Z,15.0
2024-03-01T13:45:29.018Z,15.0
2024-03-01T13:50:35.376Z,15.1
2024-03-01T13:55:23.250Z,15.0
2024-03-01T14:00:29.506Z,14.0
2024-03-01T14:05:17.776Z,14.1
2024-03-01T14:10:23.820Z,15.2
2024-03-01T14:15:29.832Z,15.2
2024-03-01T14:20:18.915Z,14.8
2024-03-01T14:25:25.958Z,14.7
2024-03-01T14:30:31.159Z,14.5
2024-03-01T14:35:20.063Z,14.4
2024-03-01T14:40:26.300Z,13.4
2024-03-01T14:45:32.371Z,13.4
2024-03-01T14:50:21.181Z,13.7
2024-03-01T14:55:26.616Z,13.7
2024-03-01T15:00:32.969Z,14.2
2024-03-01T15:05:21.966Z,14.1
2024-03-01T15:10:28.123Z,12.5
2024-03-01T15:15:35.588Z,12.6
2024-03-01T15:20:23.453Z,14.1
2024-03-01T15:25:33.368Z,14.6
2024-03-01T15:30:18.638Z,19.2
2024-03-01T15:35:24.293Z,20.8
2024-03-01T15:40:30.474Z,35.7
2024-03-01T15:45:19.489Z,33.4
2024-03-01T15:50:25.663Z,12.8
2024-03-01T15:55:31.700Z,12.9
2024-03-01T16:00:20.237Z,13.9
2024-03-01T16:05:26.505Z,14.2
2024-03-01T16:10:32.960Z,17.2
2024-03-01T16:15:21.514Z,17.2
2024-03-01T16:20:27.531Z,13.0
2024-03-01T16:25:34.189Z,13.1
2024-03-01T16:30:22.702Z,14.1
2024-03-01T16:35:28.905Z,14.0
2024-03-01T16:40:35.614Z,13.5
2024-03-01T16:45:24.215Z,13.1
2024-03-01T16:50:29.773Z,13.1
2024-03-01T16:55:18.305Z,13.7
2024-03-01T17:00:24.524Z,14.7
2024-03-01T17:05:29.725Z,14.5
2024-03-01T17:10:18.870Z,14.2
2024-03-01T17:15:24.904Z,14.4
2024-03-01T17:20:31.707Z,14.7
2024-03-01T17:25:20.744Z,14.4
2024-03-01T17:30:26.080Z,13.9
2024-03-01T17:35:32.499Z,14.8
2024-03-01T17:40:21.085Z,16.5
2024-03-01T17:45:27.224Z,16.2
2024-03-01T17:50:33.389Z,15.3
2024-03-01T17:55:22.471Z,17.1
2024-03-01T18:00:28.512Z,20.6
2024-03-01T18:05:33.898Z,21.2
2024-03-01T18:10:24.060Z,22.5
2024-03-01T18:15:28.764Z,21.1
2024-03-01T18:20:17.829Z,18.0
2024-03-01T18:25:23.837Z,18.6
2024-03-01T18:30:29.882Z,20.1
2024-03-01T18:35:18.994Z,18.9
2024-03-01T18:40:25.086Z,16.1
2024-03-01T18:45:31.121Z,16.0
2024-03-01T18:50:22.980Z,15.9
2024-03-01T18:55:25.961Z,15.5
2024-03-01T19:00:34.688Z,14.5
2024-03-01T19:05:21.360Z,45.2
2024-03-01T19:10:27.126Z,116.9
2024-03-01T19:15:34.308Z,88.1
2024-03-01T19:20:22.242Z,20.9
2024-03-01T19:25:28.333Z,19.2
2024-03-01T19:30:35.391Z,15.3
2024-03-01T19:35:23.357Z,15.7
2024-03-01T19:40:29.776Z,16.6
2024-03-01T19:45:18.511Z,15.6
2024-03-01T19:50:24.557Z,13.5
2024-03-01T19:55:30.064Z,13.2
2024-03-01T20:00:19.041Z,12.5
2024-03-01T20:05:25.778Z,13.0
2024-03-01T20:10:31.890Z,14.2
2024-03-01T20:15:20.581Z,17.6
2024-03-01T20:20:26.882Z,25.6
2024-03-01T20:25:24.566Z,22.5
2024-03-01T20:30:21.725Z,15.4
2024-03-01T20:35:27.845Z,15.6
2024-03-01T20:40:34.977Z,16.3
2024-03-01T20:45:22.783Z,16.1
2024-03-01T20:50:28.730Z,15.6
2024-03-01T20:55:35.060Z,14.9
2024-03-01T21:00:23.269Z,13.0
2024-03-01T21:05:28.775Z,12.7
2024-03-01T21:10:18.048Z,11.3
2024-03-01T21:15:23.825Z,11.3
2024-03-01T21:20:29.950Z,11.2
2024-03-01T21:25:18.926Z,11.6
2024-03-01T21:30:25.139Z,13.4
2024-03-01T21:35:31.164Z,13.1
2024-03-01T21:40:20.086Z,11.7
2024-03-01T21:45:26.306Z,11.5
2024-03-01T21:50:32.269Z,10.9
2024-03-01T21:55:21.637Z,11.1
2024-03-01T22:00:27.537Z,12.0
2024-03-01T22:05:33.101Z,11.8
2024-03-01T22:10:21.799Z,11.0
2024-03-01T22:15:28.022Z,11.2
2024-03-01T22:20:18.135Z,11.8
2024-03-01T22:25:23.104Z,11.7
2024-03-01T22:30:29.069Z,11.2
2024-03-01T22:35:18.037Z,10.7
2024-03-01T22:40:24.186Z,8.8
2024-03-01T22:45:30.405Z,9.3
2024-03-01T22:50:19.186Z,11.2
2024-03-01T22:55:24.731Z,11.0
2024-03-01T23:00:31.000Z,10.0
2024-03-01T23:05:19.905Z,10.5
2024-03-01T23:10:26.170Z,12.6
2024-03-01T23:15:32.315Z,12.3
2024-03-01T23:20:21.430Z,11.2
2024-03-01T23:25:27.159Z,11.3
2024-03-01T23:30:33.827Z,11.5
2024-03-01T23:35:22.237Z,11.8
2024-03-01T23:40:28.483Z,14.0
2024-03-01T23:45:34.916Z,13.6
2024-03-01T23:50:23.347Z,11.8
2024-03-01T23:55:28.896Z,11.7
